Time;durP1;ratioP1;P1;durP2;ratioP2;P2;SDS_P1;SDS_P2;PMS_P1;PMS_P2;Temp;Humidity;BMP_temperature;BMP_pressure;BME280_temperature;BME280_humidity;BME280_pressure;Samples;Min_cycle;Max_cycle;Signal;HPM_P1;HPM_P2
2023/01/31 00:00:44;;;;;;;7.07;3.30;;;;;;;;;;4970339;28;20030;-79
2023/01/31 00:03:10;;;;;;;9.75;3.58;;;;;;;;;;4984141;28;20240;-79
2023/01/31 00:05:36;;;;;;;10.18;3.33;;;;;;;;;;4970815;28;20119;-79
2023/01/31 00:08:02;;;;;;;9.73;2.92;;;;;;;;;;4971292;28;20077;-79
2023/01/31 00:10:28;;;;;;;4.97;2.53;;;;;;;;;;4966471;28;20046;-78
2023/01/31 00:12:54;;;;;;;10.90;3.67;;;;;;;;;;4974472;28;20038;-79
2023/01/31 00:15:20;;;;;;;6.63;2.92;;;;;;;;;;4974945;28;20027;-79
2023/01/31 00:17:46;;;;;;;5.03;2.50;;;;;;;;;;4971960;28;20046;-78
2023/01/31 00:20:12;;;;;;;7.30;3.40;;;;;;;;;;4976124;28;20015;-79
2023/01/31 00:22:38;;;;;;;9.60;3.70;;;;;;;;;;4966321;28;20045;-79
2023/01/31 00:25:05;;;;;;;6.35;2.80;;;;;;;;;;4970171;28;20035;-77
2023/01/31 00:27:31;;;;;;;9.70;3.13;;;;;;;;;;4969917;28;20097;-79
2023/01/31 00:29:57;;;;;;;5.30;2.92;;;;;;;;;;4963584;28;20019;-78
2023/01/31 00:32:25;;;;;;;7.70;2.75;;;;;;;;;;4970132;28;20115;-77
2023/01/31 00:34:52;;;;;;;5.32;3.03;;;;;;;;;;4970492;28;20540;-78
2023/01/31 00:37:18;;;;;;;5.65;2.78;;;;;;;;;;4970071;28;20109;-80
2023/01/31 00:39:44;;;;;;;5.32;2.70;;;;;;;;;;4974361;28;20027;-78
2023/01/31 00:42:10;;;;;;;6.60;2.78;;;;;;;;;;4969177;28;21019;-78
2023/01/31 00:44:36;;;;;;;7.97;3.05;;;;;;;;;;4969313;28;20031;-78
2023/01/31 00:47:03;;;;;;;5.45;2.83;;;;;;;;;;4985977;28;20145;-79
2023/01/31 00:49:29;;;;;;;7.25;2.78;;;;;;;;;;4962886;28;20035;-79
2023/01/31 00:51:55;;;;;;;7.70;2.75;;;;;;;;;;4957221;28;20026;-77
2023/01/31 00:54:21;;;;;;;5.57;2.67;;;;;;;;;;4956063;28;20051;-80
2023/01/31 00:56:47;;;;;;;8.23;3.13;;;;;;;;;;4974332;28;20030;-79
2023/01/31 00:59:13;;;;;;;4.30;2.50;;;;;;;;;;4966572;28;20518;-78
2023/01/31 01:01:39;;;;;;;6.57;2.70;;;;;;;;;;4976439;28;20030;-78
2023/01/31 01:04:09;;;;;;;4.97;2.88;;;;;;;;;;4969102;28;20110;-78
2023/01/31 01:06:38;;;;;;;6.85;2.88;;;;;;;;;;4968318;28;20227;-79
2023/01/31 01:09:04;;;;;;;5.20;2.75;;;;;;;;;;4982021;28;20113;-79
2023/01/31 01:11:31;;;;;;;6.43;2.83;;;;;;;;;;4973058;28;20034;-79
2023/01/31 01:13:58;;;;;;;6.00;2.58;;;;;;;;;;4981320;28;20157;-79
2023/01/31 01:16:26;;;;;;;6.80;2.70;;;;;;;;;;4986864;28;20413;-79
2023/01/31 01:18:53;;;;;;;10.25;3.42;;;;;;;;;;4973842;28;20085;-78
2023/01/31 01:21:30;;;;;;;6.82;3.08;;;;;;;;;;4977767;28;20022;-79
2023/01/31 01:23:57;;;;;;;5.40;2.80;;;;;;;;;;4978496;28;20027;-80
2023/01/31 01:26:25;;;;;;;9.85;3.25;;;;;;;;;;4967603;28;20026;-78
2023/01/31 01:28:53;;;;;;;7.28;3.13;;;;;;;;;;4979503;28;20462;-79
2023/01/31 01:31:20;;;;;;;9.45;2.88;;;;;;;;;;4973987;28;20022;-78
2023/01/31 01:33:47;;;;;;;6.85;3.10;;;;;;;;;;4979988;28;20049;-78
2023/01/31 01:36:20;;;;;;;7.65;2.83;;;;;;;;;;4973374;28;20107;-78
2023/01/31 01:38:47;;;;;;;9.82;3.47;;;;;;;;;;4982206;28;20018;-78
2023/01/31 01:41:13;;;;;;;6.80;3.88;;;;;;;;;;4964190;28;20027;-79
2023/01/31 01:43:40;;;;;;;4.43;2.95;;;;;;;;;;4969214;28;20130;-78
2023/01/31 01:46:08;;;;;;;9.57;3.63;;;;;;;;;;4966854;28;20027;-79
2023/01/31 01:48:34;;;;;;;8.10;3.47;;;;;;;;;;4972957;28;20390;-79
2023/01/31 01:51:02;;;;;;;9.48;4.72;;;;;;;;;;4970069;28;20094;-78
2023/01/31 01:53:29;;;;;;;19.63;6.78;;;;;;;;;;4972398;28;20102;-77
2023/01/31 01:55:57;;;;;;;10.13;5.32;;;;;;;;;;4975467;28;20423;-79
2023/01/31 01:58:26;;;;;;;10.80;4.53;;;;;;;;;;4976048;28;20027;-78
2023/01/31 02:00:53;;;;;;;6.72;4.13;;;;;;;;;;4979795;28;20089;-78
2023/01/31 02:03:19;;;;;;;8.45;3.42;;;;;;;;;;4963291;28;20110;-78
2023/01/31 02:05:59;;;;;;;6.38;3.40;;;;;;;;;;4971999;28;20034;-78
2023/01/31 02:08:28;;;;;;;6.50;3.58;;;;;;;;;;4971254;28;20086;-79
2023/01/31 02:11:14;;;;;;;9.02;3.85;;;;;;;;;;4980695;28;20034;-79
2023/01/31 02:13:41;;;;;;;8.43;4.97;;;;;;;;;;4970697;28;20026;-78
2023/01/31 02:16:07;;;;;;;6.00;3.20;;;;;;;;;;4977393;28;20026;-78
2023/01/31 02:18:34;;;;;;;6.72;3.40;;;;;;;;;;4977381;28;20027;-78
2023/01/31 02:21:18;;;;;;;9.13;3.53;;;;;;;;;;4969727;28;20557;-78
2023/01/31 02:23:59;;;;;;;6.13;3.80;;;;;;;;;;4968835;28;20039;-79
2023/01/31 02:26:25;;;;;;;9.80;3.42;;;;;;;;;;4985411;28;20031;-78
2023/01/31 02:29:10;;;;;;;6.90;3.47;;;;;;;;;;4974375;28;20037;-78
2023/01/31 02:31:36;;;;;;;9.90;3.53;;;;;;;;;;4973424;28;20038;-81
2023/01/31 02:34:15;;;;;;;5.18;3.20;;;;;;;;;;4967556;28;20041;-78
2023/01/31 02:36:50;;;;;;;6.15;3.22;;;;;;;;;;4972217;28;20489;-77
2023/01/31 02:39:34;;;;;;;5.43;3.35;;;;;;;;;;4971638;28;20031;-78
2023/01/31 02:42:26;;;;;;;6.50;3.72;;;;;;;;;;4970225;28;20670;-79
2023/01/31 02:44:58;;;;;;;7.15;3.40;;;;;;;;;;4966298;28;20043;-79
2023/01/31 02:47:27;;;;;;;5.13;3.05;;;;;;;;;;4970187;28;20049;-79
2023/01/31 02:49:56;;;;;;;7.35;3.53;;;;;;;;;;4965880;28;20039;-79
2023/01/31 02:52:34;;;;;;;8.20;3.20;;;;;;;;;;4979061;28;20566;-76
2023/01/31 02:57:49;;;;;;;4.85;3.00;;;;;;;;;;4979227;28;20037;-77
2023/01/31 03:00:15;;;;;;;6.55;3.22;;;;;;;;;;4960408;28;20102;-77
2023/01/31 03:02:41;;;;;;;5.47;3.05;;;;;;;;;;4974736;28;20034;-77
2023/01/31 03:05:07;;;;;;;7.35;4.20;;;;;;;;;;4969140;28;20026;-77
2023/01/31 03:07:37;;;;;;;5.40;3.00;;;;;;;;;;4966775;28;20031;-78
2023/01/31 03:10:03;;;;;;;10.32;3.28;;;;;;;;;;4969905;28;20031;-79
2023/01/31 03:12:46;;;;;;;6.07;3.70;;;;;;;;;;4971751;28;20084;-79
2023/01/31 03:17:30;;;;;;;4.43;2.70;;;;;;;;;;4968237;28;20019;-77
2023/01/31 03:18:20;;;;;;;5.93;2.70;;;;;;;;;;4970740;28;20034;-77
2023/01/31 03:20:46;;;;;;;8.32;2.67;;;;;;;;;;4969577;28;20022;-78
2023/01/31 03:23:19;;;;;;;4.10;3.13;;;;;;;;;;4969525;28;20019;-77
2023/01/31 03:25:46;;;;;;;3.75;2.78;;;;;;;;;;4964120;28;20031;-80
2023/01/31 03:28:14;;;;;;;3.90;2.72;;;;;;;;;;4978650;28;20028;-79
2023/01/31 03:30:52;;;;;;;3.60;2.60;;;;;;;;;;4969158;28;20512;-79
2023/01/31 03:33:24;;;;;;;3.67;2.53;;;;;;;;;;4967761;28;20041;-79
2023/01/31 03:36:05;;;;;;;5.82;2.67;;;;;;;;;;4969177;28;20515;-79
2023/01/31 03:38:34;;;;;;;3.65;2.88;;;;;;;;;;4976914;28;20034;-80
2023/01/31 03:41:23;;;;;;;5.32;2.60;;;;;;;;;;4966315;28;20027;-80
2023/01/31 03:44:01;;;;;;;2.78;2.47;;;;;;;;;;4954027;28;20027;-80
2023/01/31 03:46:30;;;;;;;4.72;2.35;;;;;;;;;;4978911;28;20040;-79
2023/01/31 03:48:57;;;;;;;3.88;2.70;;;;;;;;;;4968900;28;20536;-78
2023/01/31 03:51:25;;;;;;;6.18;3.10;;;;;;;;;;4970860;28;20035;-77
2023/01/31 03:53:53;;;;;;;4.00;2.47;;;;;;;;;;4967207;28;20026;-77
2023/01/31 03:56:22;;;;;;;6.78;2.95;;;;;;;;;;4969681;28;20023;-77
2023/01/31 03:58:50;;;;;;;4.20;2.67;;;;;;;;;;4968899;28;20098;-78
2023/01/31 04:01:18;;;;;;;4.75;2.55;;;;;;;;;;4979480;28;20081;-79
2023/01/31 04:04:03;;;;;;;6.97;2.70;;;;;;;;;;4980467;28;20028;-78
2023/01/31 04:06:29;;;;;;;3.30;2.10;;;;;;;;;;4978540;28;20449;-79
2023/01/31 04:08:55;;;;;;;4.53;2.50;;;;;;;;;;4968725;28;20516;-77
2023/01/31 04:11:24;;;;;;;12.63;3.50;;;;;;;;;;4956773;28;20049;-78
2023/01/31 04:13:50;;;;;;;20.38;5.35;;;;;;;;;;4965268;28;20495;-78
2023/01/31 04:16:16;;;;;;;18.33;4.22;;;;;;;;;;4966137;28;20077;-80
2023/01/31 04:18:42;;;;;;;21.05;5.78;;;;;;;;;;4963569;28;20473;-79
2023/01/31 04:21:08;;;;;;;25.58;5.63;;;;;;;;;;4976015;28;20129;-80
2023/01/31 04:23:35;;;;;;;27.13;5.32;;;;;;;;;;4967957;28;20708;-79
2023/01/31 04:26:01;;;;;;;30.40;5.38;;;;;;;;;;4964986;28;20027;-79
2023/01/31 04:28:28;;;;;;;25.85;6.90;;;;;;;;;;4963827;28;20560;-79
2023/01/31 04:30:54;;;;;;;15.73;5.30;;;;;;;;;;4967751;28;20077;-78
2023/01/31 04:33:21;;;;;;;22.95;5.45;;;;;;;;;;4979111;28;20030;-79
2023/01/31 04:35:47;;;;;;;18.33;4.55;;;;;;;;;;4967733;28;20054;-80
2023/01/31 04:38:13;;;;;;;17.15;4.95;;;;;;;;;;4962723;28;20096;-79
2023/01/31 04:40:39;;;;;;;33.63;6.45;;;;;;;;;;4965638;28;20031;-77
2023/01/31 04:43:05;;;;;;;25.42;5.68;;;;;;;;;;4969512;28;20047;-78
2023/01/31 04:45:31;;;;;;;25.02;4.82;;;;;;;;;;4966904;28;20035;-77
2023/01/31 04:47:57;;;;;;;24.55;6.53;;;;;;;;;;4963319;28;20753;-77
2023/01/31 04:50:23;;;;;;;19.33;5.10;;;;;;;;;;4967477;28;20046;-78
2023/01/31 04:52:50;;;;;;;19.58;5.97;;;;;;;;;;4965993;28;20031;-79
2023/01/31 04:55:16;;;;;;;19.17;4.55;;;;;;;;;;4964279;28;20177;-77
2023/01/31 04:57:42;;;;;;;19.65;5.65;;;;;;;;;;4968908;28;20046;-78
2023/01/31 05:00:09;;;;;;;23.67;6.72;;;;;;;;;;4968086;28;20019;-77
2023/01/31 05:02:35;;;;;;;15.02;5.00;;;;;;;;;;4965033;28;20510;-77
2023/01/31 05:05:02;;;;;;;17.77;5.30;;;;;;;;;;4979608;28;20122;-77
2023/01/31 05:07:28;;;;;;;20.85;5.40;;;;;;;;;;4965016;28;20043;-78
2023/01/31 05:09:54;;;;;;;20.70;5.38;;;;;;;;;;4979278;28;20022;-77
2023/01/31 05:12:20;;;;;;;12.35;4.80;;;;;;;;;;4968338;28;20033;-77
2023/01/31 05:14:46;;;;;;;25.50;4.88;;;;;;;;;;4958979;28;20117;-78
2023/01/31 05:17:12;;;;;;;19.52;4.65;;;;;;;;;;4966608;28;20015;-78
2023/01/31 05:19:39;;;;;;;17.80;4.47;;;;;;;;;;4963763;28;20031;-77
2023/01/31 05:22:05;;;;;;;23.45;5.80;;;;;;;;;;4967439;28;20031;-78
2023/01/31 05:24:32;;;;;;;33.50;5.00;;;;;;;;;;4957944;28;20039;-77
2023/01/31 05:27:00;;;;;;;22.15;5.13;;;;;;;;;;4963220;28;20031;-78
2023/01/31 05:29:27;;;;;;;21.77;5.10;;;;;;;;;;4963524;28;20031;-77
2023/01/31 05:31:54;;;;;;;16.33;4.97;;;;;;;;;;4962500;28;20027;-77
2023/01/31 05:34:20;;;;;;;21.83;5.30;;;;;;;;;;4965489;28;20086;-77
2023/01/31 05:36:46;;;;;;;15.38;5.22;;;;;;;;;;4968733;28;20039;-78
2023/01/31 05:39:12;;;;;;;20.23;4.95;;;;;;;;;;4968708;28;20074;-77
2023/01/31 05:41:38;;;;;;;26.08;6.65;;;;;;;;;;4970355;28;20026;-78
2023/01/31 05:44:05;;;;;;;17.30;5.30;;;;;;;;;;4963302;28;20054;-77
2023/01/31 05:46:31;;;;;;;21.48;5.13;;;;;;;;;;4986372;28;20074;-77
2023/01/31 05:48:57;;;;;;;20.42;4.85;;;;;;;;;;4971078;28;20089;-78
2023/01/31 05:51:23;;;;;;;15.40;4.43;;;;;;;;;;4970642;28;20110;-78
2023/01/31 05:53:49;;;;;;;18.80;4.53;;;;;;;;;;4971146;28;20620;-78
2023/01/31 05:56:15;;;;;;;16.13;4.60;;;;;;;;;;4988278;28;20039;-77
2023/01/31 05:58:41;;;;;;;16.55;4.63;;;;;;;;;;4977133;28;20027;-78
2023/01/31 06:01:08;;;;;;;23.23;6.45;;;;;;;;;;4980381;28;20023;-78
2023/01/31 06:03:34;;;;;;;23.27;5.25;;;;;;;;;;4970963;28;20114;-78
2023/01/31 06:06:00;;;;;;;21.38;6.15;;;;;;;;;;4968988;28;20070;-78
2023/01/31 06:08:26;;;;;;;17.30;5.35;;;;;;;;;;4968110;28;20031;-78
2023/01/31 06:10:52;;;;;;;27.20;6.40;;;;;;;;;;4960961;28;20082;-77
2023/01/31 06:13:18;;;;;;;28.30;6.20;;;;;;;;;;4984575;28;20500;-79
2023/01/31 06:15:44;;;;;;;25.17;5.90;;;;;;;;;;4970338;28;20382;-78
2023/01/31 06:18:12;;;;;;;24.45;5.57;;;;;;;;;;4976258;28;20445;-78
2023/01/31 06:20:38;;;;;;;24.48;5.28;;;;;;;;;;4960895;28;20049;-78
2023/01/31 06:23:04;;;;;;;19.60;4.72;;;;;;;;;;4971828;28;20027;-78
2023/01/31 06:25:30;;;;;;;23.27;5.20;;;;;;;;;;4970176;28;20028;-78
2023/01/31 06:27:56;;;;;;;26.85;7.30;;;;;;;;;;4966559;28;20066;-78
2023/01/31 06:30:26;;;;;;;29.42;6.45;;;;;;;;;;4978826;28;20023;-78
2023/01/31 06:32:52;;;;;;;35.25;7.35;;;;;;;;;;4988200;28;20484;-77
2023/01/31 06:35:18;;;;;;;21.83;4.95;;;;;;;;;;4966584;28;20031;-78
2023/01/31 06:37:44;;;;;;;20.25;5.93;;;;;;;;;;4972458;28;20019;-77
2023/01/31 06:40:10;;;;;;;28.70;8.27;;;;;;;;;;4966681;28;20035;-78
2023/01/31 06:42:37;;;;;;;19.67;5.25;;;;;;;;;;4971968;28;20027;-77
2023/01/31 06:45:03;;;;;;;27.38;4.82;;;;;;;;;;4969143;28;20461;-78
2023/01/31 06:47:29;;;;;;;22.80;5.22;;;;;;;;;;4981460;28;20110;-78
2023/01/31 06:49:55;;;;;;;24.45;6.03;;;;;;;;;;4970246;28;20038;-78
2023/01/31 06:52:21;;;;;;;16.52;4.82;;;;;;;;;;4969226;28;20033;-78
2023/01/31 06:54:47;;;;;;;23.85;5.13;;;;;;;;;;4974753;28;20548;-78
2023/01/31 06:57:13;;;;;;;26.17;4.80;;;;;;;;;;4966270;28;20417;-77
2023/01/31 06:59:40;;;;;;;18.00;5.55;;;;;;;;;;4966689;28;20078;-78
2023/01/31 07:02:06;;;;;;;29.55;5.95;;;;;;;;;;4970447;28;20031;-78
2023/01/31 07:04:32;;;;;;;21.70;5.43;;;;;;;;;;4991986;28;20058;-78
2023/01/31 07:06:58;;;;;;;19.65;5.00;;;;;;;;;;4971618;28;20043;-78
2023/01/31 07:09:24;;;;;;;25.30;4.95;;;;;;;;;;4966028;28;20398;-78
2023/01/31 07:11:50;;;;;;;31.83;6.22;;;;;;;;;;4962252;28;20042;-79
2023/01/31 07:14:16;;;;;;;19.88;4.40;;;;;;;;;;4963065;28;20058;-78
2023/01/31 07:16:42;;;;;;;17.80;5.43;;;;;;;;;;4960955;28;20027;-79
2023/01/31 07:19:08;;;;;;;18.15;5.55;;;;;;;;;;4968809;28;20474;-79
2023/01/31 07:21:35;;;;;;;22.98;6.22;;;;;;;;;;4982081;28;20073;-79
2023/01/31 07:24:01;;;;;;;27.15;4.55;;;;;;;;;;4973962;28;20034;-82
2023/01/31 07:26:27;;;;;;;22.23;4.82;;;;;;;;;;4969997;28;20038;-79
2023/01/31 07:28:53;;;;;;;25.85;7.45;;;;;;;;;;4971783;28;20276;-78
2023/01/31 07:31:19;;;;;;;22.85;6.20;;;;;;;;;;4979838;28;20137;-80
2023/01/31 07:33:46;;;;;;;25.48;4.18;;;;;;;;;;4970669;28;20033;-79
2023/01/31 07:36:13;;;;;;;20.77;5.22;;;;;;;;;;4970264;28;20406;-79
2023/01/31 07:38:39;;;;;;;18.60;4.57;;;;;;;;;;4968773;28;20034;-79
2023/01/31 07:41:07;;;;;;;24.50;6.13;;;;;;;;;;4972049;28;20113;-78
2023/01/31 07:43:33;;;;;;;14.30;4.63;;;;;;;;;;4974837;28;20041;-78
2023/01/31 07:45:59;;;;;;;18.70;5.05;;;;;;;;;;4972267;28;20766;-81
2023/01/31 07:48:26;;;;;;;20.23;6.30;;;;;;;;;;4987764;28;20051;-79
2023/01/31 07:50:53;;;;;;;20.05;4.53;;;;;;;;;;4994749;28;20559;-80
2023/01/31 07:53:19;;;;;;;18.77;4.75;;;;;;;;;;4982336;28;20034;-77
2023/01/31 07:55:46;;;;;;;18.17;5.35;;;;;;;;;;4980188;28;20047;-78
2023/01/31 07:58:13;;;;;;;13.32;4.07;;;;;;;;;;4995042;28;20053;-79
2023/01/31 08:03:32;;;;;;;20.10;5.25;;;;;;;;;;4983396;28;20037;-81
2023/01/31 08:06:02;;;;;;;25.00;5.80;;;;;;;;;;4981657;28;20015;-80
2023/01/31 08:08:29;;;;;;;22.23;5.20;;;;;;;;;;5000827;28;20034;-80
2023/01/31 08:10:55;;;;;;;22.90;4.57;;;;;;;;;;4983629;28;20031;-79
2023/01/31 08:13:21;;;;;;;23.52;5.20;;;;;;;;;;4986796;28;20037;-78
2023/01/31 08:15:47;;;;;;;14.80;3.78;;;;;;;;;;4999906;28;20453;-78
2023/01/31 08:18:13;;;;;;;15.18;5.00;;;;;;;;;;4983268;28;20027;-78
2023/01/31 08:20:40;;;;;;;26.38;5.75;;;;;;;;;;4988287;28;20046;-78
2023/01/31 08:23:06;;;;;;;11.88;4.38;;;;;;;;;;4982929;28;20011;-80
2023/01/31 08:25:32;;;;;;;19.38;5.10;;;;;;;;;;4983580;28;20015;-79
2023/01/31 08:27:58;;;;;;;17.67;4.55;;;;;;;;;;4980497;28;20039;-81
2023/01/31 08:30:25;;;;;;;19.85;5.35;;;;;;;;;;4994606;28;20027;-78
2023/01/31 08:32:51;;;;;;;20.25;4.35;;;;;;;;;;4994525;28;20061;-80
2023/01/31 08:35:17;;;;;;;19.70;5.40;;;;;;;;;;4983525;28;20054;-79
2023/01/31 08:37:43;;;;;;;22.30;7.28;;;;;;;;;;4995052;28;20074;-78
2023/01/31 08:40:09;;;;;;;15.45;4.68;;;;;;;;;;4984070;28;20026;-79
2023/01/31 08:42:35;;;;;;;29.23;5.82;;;;;;;;;;4981063;28;20118;-79
2023/01/31 08:45:01;;;;;;;17.00;5.22;;;;;;;;;;4977438;28;20037;-79
2023/01/31 08:47:32;;;;;;;21.35;5.53;;;;;;;;;;4982972;28;20042;-79
2023/01/31 08:50:07;;;;;;;22.08;5.05;;;;;;;;;;4999720;28;20478;-78
2023/01/31 08:52:34;;;;;;;12.85;4.53;;;;;;;;;;4984661;28;20022;-79
2023/01/31 08:55:00;;;;;;;19.30;4.80;;;;;;;;;;4988960;28;20054;-76
2023/01/31 08:57:26;;;;;;;17.33;5.25;;;;;;;;;;4994440;28;20039;-77
2023/01/31 08:59:52;;;;;;;19.65;4.80;;;;;;;;;;4982645;28;20019;-79
2023/01/31 09:02:18;;;;;;;17.52;4.85;;;;;;;;;;4982778;28;20035;-79
2023/01/31 09:04:45;;;;;;;21.83;5.00;;;;;;;;;;4983779;28;20094;-79
2023/01/31 09:07:11;;;;;;;22.55;6.25;;;;;;;;;;4991997;28;20038;-80
2023/01/31 09:09:37;;;;;;;26.05;4.93;;;;;;;;;;4983462;28;20105;-79
2023/01/31 09:12:03;;;;;;;15.55;6.00;;;;;;;;;;4988088;28;20034;-79
2023/01/31 09:14:30;;;;;;;22.00;6.15;;;;;;;;;;4975472;28;20031;-80
2023/01/31 09:16:56;;;;;;;17.73;6.05;;;;;;;;;;4975247;28;20031;-81
2023/01/31 09:19:22;;;;;;;20.65;3.70;;;;;;;;;;4977495;28;20041;-79
2023/01/31 09:21:48;;;;;;;16.08;3.88;;;;;;;;;;4978096;28;20043;-78
2023/01/31 09:24:14;;;;;;;19.05;5.22;;;;;;;;;;4979070;28;20026;-79
2023/01/31 09:26:41;;;;;;;17.25;4.60;;;;;;;;;;4977791;28;20034;-80
2023/01/31 09:29:07;;;;;;;18.35;5.43;;;;;;;;;;4982224;28;20031;-79
2023/01/31 09:31:46;;;;;;;14.68;5.10;;;;;;;;;;4994997;28;20049;-79
2023/01/31 09:34:14;;;;;;;23.42;4.80;;;;;;;;;;5002617;28;20030;-80
2023/01/31 09:36:40;;;;;;;21.33;4.30;;;;;;;;;;4992683;28;20078;-80
2023/01/31 09:39:06;;;;;;;19.73;4.88;;;;;;;;;;5000227;28;20105;-79
2023/01/31 09:41:35;;;;;;;12.50;4.38;;;;;;;;;;4991741;28;20058;-79
2023/01/31 09:44:02;;;;;;;19.85;4.90;;;;;;;;;;4993151;28;20094;-79
2023/01/31 09:46:32;;;;;;;19.08;5.00;;;;;;;;;;4986450;28;20372;-78
2023/01/31 09:48:59;;;;;;;16.73;5.18;;;;;;;;;;4991813;28;20023;-80
2023/01/31 09:51:25;;;;;;;18.75;5.10;;;;;;;;;;4999990;28;20025;-83
2023/01/31 09:53:51;;;;;;;19.20;6.10;;;;;;;;;;5082080;23;20041;-79
2023/01/31 09:56:34;;;;;;;17.08;4.97;;;;;;;;;;5006431;28;20026;-79
2023/01/31 09:59:14;;;;;;;19.48;5.88;;;;;;;;;;5006718;28;20022;-79
2023/01/31 10:01:52;;;;;;;17.08;4.93;;;;;;;;;;5006924;28;20006;-79
2023/01/31 10:04:22;;;;;;;13.75;4.25;;;;;;;;;;5022896;28;20030;-80
2023/01/31 10:06:51;;;;;;;15.43;5.88;;;;;;;;;;5002799;28;20102;-79
2023/01/31 10:09:21;;;;;;;13.60;4.97;;;;;;;;;;5007228;28;20086;-79
2023/01/31 10:12:00;;;;;;;14.35;4.20;;;;;;;;;;5061554;23;20046;-81
2023/01/31 10:14:34;;;;;;;18.98;4.75;;;;;;;;;;5005117;28;20046;-81
2023/01/31 10:17:06;;;;;;;14.65;4.63;;;;;;;;;;5005856;28;20026;-80
2023/01/31 10:19:38;;;;;;;19.27;7.43;;;;;;;;;;5009026;28;20113;-79
2023/01/31 10:22:09;;;;;;;21.02;5.57;;;;;;;;;;5007924;28;20045;-80
2023/01/31 10:24:38;;;;;;;20.10;5.63;;;;;;;;;;5027022;28;20040;-80
2023/01/31 10:27:10;;;;;;;22.05;5.13;;;;;;;;;;5008642;28;20472;-78
2023/01/31 10:29:39;;;;;;;12.55;4.57;;;;;;;;;;5002438;28;20034;-76
2023/01/31 10:32:19;;;;;;;20.02;5.53;;;;;;;;;;5007448;28;20030;-77
2023/01/31 10:34:47;;;;;;;14.60;5.30;;;;;;;;;;5009222;28;20022;-78
2023/01/31 10:37:16;;;;;;;18.83;6.45;;;;;;;;;;5007342;28;20022;-78
2023/01/31 10:39:43;;;;;;;17.40;6.00;;;;;;;;;;5006831;28;20030;-80
2023/01/31 10:42:35;;;;;;;18.33;6.13;;;;;;;;;;5010728;28;20049;-78
2023/01/31 10:45:07;;;;;;;16.75;6.07;;;;;;;;;;5004941;28;20062;-77
2023/01/31 10:47:41;;;;;;;22.55;5.72;;;;;;;;;;5008139;28;20089;-77
2023/01/31 10:50:15;;;;;;;14.52;5.00;;;;;;;;;;4999145;28;20018;-78
2023/01/31 10:52:43;;;;;;;21.77;8.68;;;;;;;;;;5007450;28;20054;-77
2023/01/31 10:55:18;;;;;;;15.32;5.85;;;;;;;;;;5005188;28;20482;-79
2023/01/31 10:57:53;;;;;;;18.95;5.20;;;;;;;;;;5009747;28;20081;-77
2023/01/31 11:00:26;;;;;;;22.63;6.85;;;;;;;;;;5002948;28;20022;-76
2023/01/31 11:02:52;;;;;;;21.92;5.88;;;;;;;;;;5010021;28;20042;-80
2023/01/31 11:05:27;;;;;;;23.02;5.90;;;;;;;;;;5001937;28;20511;-79
2023/01/31 11:07:55;;;;;;;20.75;6.35;;;;;;;;;;5007804;28;20044;-78
2023/01/31 11:10:21;;;;;;;19.30;5.05;;;;;;;;;;5005425;28;20034;-79
2023/01/31 11:12:54;;;;;;;19.02;5.90;;;;;;;;;;5000098;28;20408;-78
2023/01/31 11:15:22;;;;;;;19.70;7.25;;;;;;;;;;5003965;28;20027;-79
2023/01/31 11:17:51;;;;;;;20.23;4.97;;;;;;;;;;5015634;28;20019;-79
2023/01/31 11:20:23;;;;;;;18.83;5.28;;;;;;;;;;5002202;28;20018;-79
2023/01/31 11:22:49;;;;;;;16.85;5.72;;;;;;;;;;5007671;28;20088;-78
2023/01/31 11:25:20;;;;;;;15.98;5.07;;;;;;;;;;5001034;28;20113;-79
2023/01/31 11:27:47;;;;;;;17.75;5.10;;;;;;;;;;5008723;28;20066;-79
2023/01/31 11:30:21;;;;;;;12.63;5.03;;;;;;;;;;5011260;28;20026;-79
2023/01/31 11:32:48;;;;;;;18.35;4.38;;;;;;;;;;4992570;28;20026;-79
2023/01/31 11:35:51;;;;;;;22.50;6.57;;;;;;;;;;5008465;28;20018;-79
2023/01/31 11:38:21;;;;;;;19.23;5.03;;;;;;;;;;5006851;28;20023;-78
2023/01/31 11:40:47;;;;;;;13.40;4.70;;;;;;;;;;5005457;28;20065;-77
2023/01/31 11:43:16;;;;;;;18.30;5.78;;;;;;;;;;5006612;28;20027;-77
2023/01/31 11:45:46;;;;;;;15.13;6.15;;;;;;;;;;5005666;28;20062;-80
2023/01/31 11:48:12;;;;;;;18.40;6.82;;;;;;;;;;4995444;28;20030;-78
2023/01/31 11:50:40;;;;;;;14.60;6.90;;;;;;;;;;5016611;28;20031;-75
2023/01/31 11:53:26;;;;;;;20.25;7.07;;;;;;;;;;5002341;28;20027;-77
2023/01/31 11:55:54;;;;;;;18.55;5.85;;;;;;;;;;5006261;28;20086;-78
2023/01/31 11:58:22;;;;;;;13.93;5.80;;;;;;;;;;5006187;28;20050;-77
2023/01/31 12:00:56;;;;;;;17.08;5.03;;;;;;;;;;5006336;28;20101;-79
2023/01/31 12:03:22;;;;;;;15.38;3.97;;;;;;;;;;5003423;28;20540;-78
2023/01/31 12:05:58;;;;;;;16.17;5.20;;;;;;;;;;5001201;28;20051;-78
2023/01/31 12:08:35;;;;;;;16.40;5.45;;;;;;;;;;5005289;28;20030;-79
2023/01/31 12:11:24;;;;;;;16.17;4.50;;;;;;;;;;5014033;28;20027;-79
2023/01/31 12:13:59;;;;;;;15.15;4.43;;;;;;;;;;5005081;28;20052;-78
2023/01/31 12:16:27;;;;;;;16.85;5.22;;;;;;;;;;5006206;28;20026;-80
2023/01/31 12:18:56;;;;;;;26.08;5.40;;;;;;;;;;5005811;28;20026;-79
2023/01/31 12:21:22;;;;;;;15.27;3.97;;;;;;;;;;5001141;28;20023;-78
2023/01/31 12:23:48;;;;;;;14.80;4.38;;;;;;;;;;5006002;28;20165;-79
2023/01/31 12:26:28;;;;;;;12.75;4.50;;;;;;;;;;5010341;28;20608;-78
2023/01/31 12:29:06;;;;;;;12.27;3.90;;;;;;;;;;5004049;28;20042;-78
2023/01/31 12:31:35;;;;;;;16.52;4.68;;;;;;;;;;5005795;28;20050;-76
2023/01/31 12:34:08;;;;;;;16.85;5.38;;;;;;;;;;5006393;28;20016;-79
2023/01/31 12:36:39;;;;;;;14.23;5.32;;;;;;;;;;4999790;28;20030;-77
2023/01/31 12:39:16;;;;;;;14.02;4.80;;;;;;;;;;4986355;28;20082;-79
2023/01/31 12:42:02;;;;;;;18.30;4.35;;;;;;;;;;5014121;28;20023;-77
2023/01/31 12:44:31;;;;;;;16.02;5.15;;;;;;;;;;5006210;28;20030;-80
2023/01/31 12:47:10;;;;;;;11.63;4.07;;;;;;;;;;5004982;28;20401;-77
2023/01/31 12:49:51;;;;;;;17.83;5.88;;;;;;;;;;5005264;28;20034;-77
2023/01/31 12:52:17;;;;;;;14.27;4.82;;;;;;;;;;5014781;28;20021;-78
2023/01/31 12:54:43;;;;;;;13.32;4.13;;;;;;;;;;5020994;28;20117;-80
2023/01/31 12:57:13;;;;;;;14.38;4.43;;;;;;;;;;5009226;28;20018;-79
2023/01/31 12:59:54;;;;;;;18.48;5.68;;;;;;;;;;5005081;28;20015;-77
2023/01/31 13:02:20;;;;;;;15.38;4.78;;;;;;;;;;5023699;28;20035;-78
2023/01/31 13:05:03;;;;;;;14.45;5.00;;;;;;;;;;5008967;28;20499;-78
2023/01/31 13:07:35;;;;;;;11.52;4.95;;;;;;;;;;5008782;28;20065;-80
2023/01/31 13:10:03;;;;;;;13.90;5.65;;;;;;;;;;5002640;28;20065;-77
2023/01/31 13:12:39;;;;;;;15.73;4.47;;;;;;;;;;5008764;28;20074;-79
2023/01/31 13:15:07;;;;;;;20.92;6.15;;;;;;;;;;5009091;28;20037;-78
2023/01/31 13:17:35;;;;;;;11.98;4.07;;;;;;;;;;5008358;28;20022;-79
2023/01/31 13:20:05;;;;;;;18.85;5.25;;;;;;;;;;5009891;28;20019;-78
2023/01/31 13:22:34;;;;;;;17.90;5.55;;;;;;;;;;5008917;28;20026;-78
2023/01/31 13:25:03;;;;;;;19.38;4.15;;;;;;;;;;5009278;28;20065;-77
2023/01/31 13:27:32;;;;;;;12.38;3.92;;;;;;;;;;4994338;28;20023;-77
2023/01/31 13:30:05;;;;;;;15.23;4.43;;;;;;;;;;5003812;28;20030;-77
2023/01/31 13:32:42;;;;;;;13.20;4.78;;;;;;;;;;5010646;28;20060;-77
2023/01/31 13:35:14;;;;;;;15.90;4.63;;;;;;;;;;5011262;28;20033;-79
2023/01/31 13:37:42;;;;;;;16.17;5.85;;;;;;;;;;5004747;28;20033;-77
2023/01/31 13:40:14;;;;;;;17.70;6.10;;;;;;;;;;5008854;28;20030;-79
2023/01/31 13:42:40;;;;;;;21.65;4.90;;;;;;;;;;5008776;28;20030;-79
2023/01/31 13:45:09;;;;;;;17.48;5.88;;;;;;;;;;5010533;28;20022;-78
2023/01/31 13:47:52;;;;;;;14.10;4.53;;;;;;;;;;5009394;28;20023;-79
2023/01/31 13:50:32;;;;;;;16.48;4.90;;;;;;;;;;5005976;28;20033;-78
2023/01/31 13:53:00;;;;;;;13.27;4.22;;;;;;;;;;5008085;28;20037;-77
2023/01/31 13:55:38;;;;;;;13.07;3.45;;;;;;;;;;5009686;28;20042;-78
2023/01/31 13:58:07;;;;;;;14.82;4.55;;;;;;;;;;5009079;28;20026;-79
2023/01/31 14:00:40;;;;;;;15.00;4.95;;;;;;;;;;5009646;28;20045;-78
2023/01/31 14:03:09;;;;;;;14.45;5.15;;;;;;;;;;5007770;28;20023;-78
2023/01/31 14:05:50;;;;;;;10.00;3.85;;;;;;;;;;4993109;28;20332;-78
2023/01/31 14:11:43;;;;;;;14.50;4.35;;;;;;;;;;5006677;28;20060;-78
2023/01/31 14:14:09;;;;;;;11.38;4.63;;;;;;;;;;4993585;28;20501;-79
2023/01/31 14:16:37;;;;;;;12.43;3.75;;;;;;;;;;4988278;28;20023;-77
2023/01/31 14:19:05;;;;;;;14.95;4.75;;;;;;;;;;4983262;28;20023;-77
2023/01/31 14:21:31;;;;;;;13.00;4.63;;;;;;;;;;4984719;28;20054;-77
2023/01/31 14:23:58;;;;;;;15.43;4.43;;;;;;;;;;4978053;28;20389;-79
2023/01/31 14:26:42;;;;;;;12.52;4.93;;;;;;;;;;4987941;28;20087;-77
2023/01/31 14:29:09;;;;;;;11.65;4.18;;;;;;;;;;4990009;28;20385;-78
2023/01/31 14:31:36;;;;;;;12.25;3.35;;;;;;;;;;4988098;28;20031;-78
2023/01/31 14:34:02;;;;;;;10.43;3.80;;;;;;;;;;4988472;28;20114;-77
2023/01/31 14:36:47;;;;;;;13.15;4.97;;;;;;;;;;4989352;28;20094;-78
2023/01/31 14:39:26;;;;;;;14.40;3.95;;;;;;;;;;4988030;28;20481;-77
2023/01/31 14:42:04;;;;;;;12.98;3.65;;;;;;;;;;4987264;28;20027;-78
2023/01/31 14:44:58;;;;;;;16.33;4.85;;;;;;;;;;4978993;28;20023;-78
2023/01/31 14:47:33;;;;;;;14.38;4.28;;;;;;;;;;4992804;28;20039;-80
2023/01/31 14:49:59;;;;;;;15.02;5.32;;;;;;;;;;4984528;28;20034;-79
2023/01/31 14:52:36;;;;;;;8.75;3.70;;;;;;;;;;4989526;28;20035;-79
2023/01/31 14:55:06;;;;;;;15.02;4.53;;;;;;;;;;4991364;28;20053;-78